createdAt,value
2016-11-30T00:00:31.483Z,99.99
2016-11-30T00:01:31.455Z,99.99
2016-11-30T00:02:31.428Z,99.99
2016-11-30T00:03:31.400Z,99.99
2016-11-30T00:04:31.377Z,99.99
2016-11-30T00:05:31.350Z,99.99
2016-11-30T00:06:31.325Z,99.99
2016-11-30T00:07:31.299Z,99.99
2016-11-30T00:08:31.271Z,99.99
2016-11-30T00:09:31.249Z,99.99
2016-11-30T00:10:31.533Z,99.99
2016-11-30T00:11:31.192Z,99.99
2016-11-30T00:12:31.167Z,99.99
2016-11-30T00:13:31.140Z,99.99
2016-11-30T00:14:31.117Z,99.99
2016-11-30T00:15:31.095Z,99.99
2016-11-30T00:16:31.068Z,99.99
2016-11-30T00:17:31.035Z,99.99
2016-11-30T00:18:31.013Z,99.99
2016-11-30T00:19:30.987Z,99.99
2016-11-30T00:20:31.007Z,99.99
2016-11-30T00:21:30.938Z,99.99
2016-11-30T00:22:30.908Z,99.99
2016-11-30T00:23:30.882Z,99.99
2016-11-30T00:24:30.854Z,99.99
2016-11-30T00:25:30.829Z,99.99
2016-11-30T00:26:31.121Z,99.99
2016-11-30T00:27:30.774Z,99.99
2016-11-30T00:28:30.753Z,99.99
2016-11-30T00:29:30.725Z,99.99
2016-11-30T00:30:30.699Z,99.99
2016-11-30T00:31:30.989Z,99.99
2016-11-30T00:32:30.651Z,99.99
2016-11-30T00:33:30.619Z,99.99
2016-11-30T00:34:30.910Z,99.99
2016-11-30T00:35:30.569Z,99.99
2016-11-30T00:36:30.543Z,99.99
2016-11-30T00:37:30.522Z,99.99
2016-11-30T00:38:30.491Z,99.99
2016-11-30T00:39:30.469Z,99.99
2016-11-30T00:40:30.443Z,99.99
2016-11-30T00:41:30.416Z,99.99
2016-11-30T00:42:30.388Z,99.99
2016-11-30T00:43:30.367Z,99.99
2016-11-30T00:44:30.650Z,99.99
2016-11-30T00:45:30.311Z,99.99
2016-11-30T00:46:30.286Z,99.99
2016-11-30T00:47:30.269Z,99.99
2016-11-30T00:48:30.544Z,99.99
2016-11-30T00:49:30.222Z,99.99
2016-11-30T00:50:30.182Z,99.99
2016-11-30T00:51:30.161Z,99.99
2016-11-30T00:52:30.441Z,99.99
2016-11-30T00:53:30.100Z,99.99
2016-11-30T00:54:30.083Z,99.99
2016-11-30T00:55:30.049Z,99.99
2016-11-30T00:56:30.031Z,99.99
2016-11-30T00:57:30.002Z,99.99
2016-11-30T00:58:29.971Z,99.99
2016-11-30T00:59:29.950Z,99.99
2016-11-30T01:00:29.919Z,99.99
2016-11-30T01:01:29.894Z,99.99
2016-11-30T01:02:29.870Z,99.99
2016-11-30T01:03:30.156Z,99.99
2016-11-30T01:04:29.821Z,99.99
2016-11-30T01:05:29.791Z,99.99
2016-11-30T01:06:29.770Z,99.99
2016-11-30T01:07:29.737Z,99.99
2016-11-30T01:08:29.714Z,99.99
2016-11-30T01:09:29.684Z,99.99
2016-11-30T01:10:29.665Z,99.99
2016-11-30T01:11:29.636Z,99.99
2016-11-30T01:12:29.612Z,99.99
2016-11-30T01:13:29.896Z,99.99
2016-11-30T01:14:29.559Z,99.99
2016-11-30T01:15:29.531Z,99.99
2016-11-30T01:16:29.505Z,99.99
2016-11-30T01:17:29.480Z,99.99
2016-11-30T01:18:29.459Z,99.99
2016-11-30T01:19:29.429Z,99.99
2016-11-30T01:20:29.408Z,99.99
2016-11-30T01:21:29.378Z,99.99
2016-11-30T01:22:29.349Z,99.99
2016-11-30T01:23:29.321Z,99.99
2016-11-30T01:24:29.611Z,99.99
2016-11-30T01:25:29.268Z,99.99
2016-11-30T01:26:29.557Z,99.99
2016-11-30T01:27:29.221Z,99.99
2016-11-30T01:28:29.191Z,99.99
2016-11-30T01:29:29.172Z,99.99
2016-11-30T01:30:29.141Z,99.99
2016-11-30T01:31:29.115Z,99.99
2016-11-30T01:32:29.090Z,99.99
2016-11-30T01:33:29.059Z,99.99
2016-11-30T01:34:29.038Z,99.99
2016-11-30T01:35:29.012Z,99.99
2016-11-30T01:36:28.982Z,99.99
2016-11-30T01:37:28.959Z,99.99
2016-11-30T01:38:28.932Z,99.99
2016-11-30T01:39:28.956Z,99.99
2016-11-30T01:40:28.879Z,99.99
2016-11-30T01:41:28.851Z,99.99
2016-11-30T01:42:29.140Z,99.99
2016-11-30T01:43:28.801Z,99.99
2016-11-30T01:44:29.086Z,99.99
2016-11-30T01:45:28.749Z,99.99
2016-11-30T01:46:28.721Z,99.99
2016-11-30T01:47:28.696Z,99.99
2016-11-30T01:48:28.667Z,99.99
2016-11-30T01:49:28.645Z,99.99
2016-11-30T01:50:28.623Z,99.99
2016-11-30T01:51:28.912Z,99.99
2016-11-30T01:52:28.573Z,99.99
2016-11-30T01:53:28.545Z,99.99
2016-11-30T01:54:28.514Z,99.99
2016-11-30T01:55:28.892Z,99.99
2016-11-30T01:56:28.458Z,99.99
2016-11-30T01:57:28.432Z,99.99
2016-11-30T01:58:28.413Z,99.99
2016-11-30T01:59:28.381Z,99.99
2016-11-30T02:00:28.355Z,99.99
2016-11-30T02:01:28.334Z,99.99
2016-11-30T02:02:28.304Z,99.99
2016-11-30T02:03:28.280Z,99.99
2016-11-30T02:04:28.254Z,99.99
2016-11-30T02:05:28.227Z,99.99
2016-11-30T02:06:28.198Z,99.99
2016-11-30T02:07:28.174Z,99.99
2016-11-30T02:08:28.147Z,99.99
2016-11-30T02:09:28.435Z,99.99
2016-11-30T02:10:28.096Z,99.99
2016-11-30T02:11:28.068Z,99.99
2016-11-30T02:12:28.045Z,99.99
2016-11-30T02:13:28.015Z,99.99
2016-11-30T02:14:27.991Z,99.99
2016-11-30T02:15:27.967Z,99.99
2016-11-30T02:16:27.937Z,99.99
2016-11-30T02:17:28.225Z,99.99
2016-11-30T02:18:27.890Z,99.99
2016-11-30T02:19:27.863Z,99.99
2016-11-30T02:20:27.832Z,99.99
2016-11-30T02:21:27.811Z,99.99
2016-11-30T02:22:27.782Z,99.99
2016-11-30T02:23:27.757Z,99.99
2016-11-30T02:24:27.729Z,99.99
2016-11-30T02:25:27.701Z,99.99
2016-11-30T02:26:27.729Z,99.99
2016-11-30T02:27:27.651Z,99.99
2016-11-30T02:28:27.937Z,99.99
2016-11-30T02:29:27.921Z,99.99
2016-11-30T02:30:27.576Z,99.99
2016-11-30T02:31:27.546Z,99.99
2016-11-30T02:32:27.524Z,99.99
2016-11-30T02:33:27.496Z,99.99
2016-11-30T02:34:27.466Z,99.99
2016-11-30T02:35:27.439Z,99.99
2016-11-30T02:36:27.414Z,99.99
2016-11-30T02:37:27.388Z,99.99
2016-11-30T02:38:27.365Z,99.99
2016-11-30T02:39:27.339Z,99.99
2016-11-30T02:40:27.308Z,99.99
2016-11-30T02:41:27.283Z,99.99
2016-11-30T02:42:27.254Z,99.99
2016-11-30T02:43:27.232Z,99.99
2016-11-30T02:44:27.203Z,99.99
2016-11-30T02:45:27.179Z,99.99
2016-11-30T02:46:27.463Z,99.99
2016-11-30T02:47:27.126Z,99.99
2016-11-30T02:48:27.098Z,99.99
2016-11-30T02:49:27.074Z,99.99
2016-11-30T02:50:27.047Z,99.99
2016-11-30T02:51:27.022Z,99.99
2016-11-30T02:52:26.995Z,99.99
2016-11-30T02:53:26.967Z,99.99
2016-11-30T02:54:26.942Z,99.99
2016-11-30T02:55:26.916Z,99.99
2016-11-30T02:56:26.888Z,99.99
2016-11-30T02:57:26.866Z,99.99
2016-11-30T02:58:26.839Z,99.99
2016-11-30T02:59:27.125Z,99.99
2016-11-30T03:00:26.785Z,99.99
2016-11-30T03:01:26.759Z,99.99
2016-11-30T03:02:26.735Z,99.99
2016-11-30T03:03:26.707Z,99.99
2016-11-30T03:04:26.682Z,99.99
2016-11-30T03:05:26.973Z,99.99
2016-11-30T03:06:26.630Z,99.99
2016-11-30T03:07:26.599Z,99.99
2016-11-30T03:08:26.583Z,99.99
2016-11-30T03:09:26.549Z,99.99
2016-11-30T03:10:26.836Z,99.99
2016-11-30T03:11:26.820Z,99.99
2016-11-30T03:12:26.475Z,99.99
2016-11-30T03:13:26.451Z,99.99
2016-11-30T03:14:26.421Z,99.99
2016-11-30T03:15:26.704Z,99.99
2016-11-30T03:16:26.368Z,99.99
2016-11-30T03:17:26.340Z,99.99
2016-11-30T03:18:26.318Z,99.99
2016-11-30T03:19:26.288Z,99.99
2016-11-30T03:20:26.262Z,99.99
2016-11-30T03:21:26.549Z,99.99
2016-11-30T03:22:26.215Z,99.99
2016-11-30T03:23:26.189Z,99.99
2016-11-30T03:24:26.159Z,99.99
2016-11-30T03:25:26.132Z,99.99
2016-11-30T03:26:26.103Z,99.99
2016-11-30T03:27:26.078Z,99.99
2016-11-30T03:28:26.061Z,99.99
2016-11-30T03:29:26.030Z,99.99
2016-11-30T03:30:26.000Z,99.99
2016-11-30T03:31:25.976Z,99.99
2016-11-30T03:32:25.948Z,99.99
2016-11-30T03:33:25.928Z,99.99
2016-11-30T03:34:25.903Z,99.99
2016-11-30T03:35:25.873Z,99.99
2016-11-30T03:36:26.182Z,99.99
2016-11-30T03:37:25.822Z,99.99
2016-11-30T03:38:25.799Z,99.99
2016-11-30T03:39:25.771Z,99.99
2016-11-30T03:40:26.053Z,99.99
2016-11-30T03:41:25.767Z,99.99
2016-11-30T03:42:25.691Z,99.99
2016-11-30T03:43:25.982Z,99.99
2016-11-30T03:44:25.637Z,99.99
2016-11-30T03:45:25.612Z,99.99
2016-11-30T03:46:25.588Z,99.99
2016-11-30T03:47:25.876Z,99.99
2016-11-30T03:48:25.844Z,99.99
2016-11-30T03:49:25.510Z,99.99
2016-11-30T03:50:25.484Z,99.99
2016-11-30T03:51:25.455Z,99.99
2016-11-30T03:52:25.429Z,99.99
2016-11-30T03:53:25.404Z,99.99
2016-11-30T03:54:25.377Z,99.99
2016-11-30T03:55:25.349Z,99.99
2016-11-30T03:56:25.324Z,99.99
2016-11-30T03:57:25.299Z,99.99
2016-11-30T03:58:25.273Z,99.99
2016-11-30T03:59:25.248Z,99.99
2016-11-30T04:00:25.220Z,99.99
2016-11-30T04:01:25.194Z,99.99
2016-11-30T04:02:25.174Z,99.99
2016-11-30T04:03:25.144Z,99.99
2016-11-30T04:04:25.117Z,99.99
2016-11-30T04:05:25.094Z,99.99
2016-11-30T04:06:25.067Z,99.99
2016-11-30T04:07:25.038Z,99.99
2016-11-30T04:08:25.014Z,99.99
2016-11-30T04:09:24.991Z,99.99
2016-11-30T04:10:24.961Z,99.99
2016-11-30T04:11:24.938Z,99.99
2016-11-30T04:12:24.959Z,99.99
2016-11-30T04:13:24.895Z,99.99
2016-11-30T04:14:24.909Z,99.99
2016-11-30T04:15:24.833Z,99.99
2016-11-30T04:16:24.805Z,99.99
2016-11-30T04:17:24.777Z,99.99
2016-11-30T04:18:24.758Z,99.99
2016-11-30T04:19:24.728Z,99.99
2016-11-30T04:20:24.706Z,99.99
2016-11-30T04:21:24.676Z,99.99
2016-11-30T04:22:24.651Z,99.99
2016-11-30T04:23:24.625Z,99.99
2016-11-30T04:24:24.599Z,99.99
2016-11-30T04:25:24.571Z,99.99
2016-11-30T04:26:24.547Z,99.99
2016-11-30T04:27:24.524Z,99.99
2016-11-30T04:28:24.498Z,99.99
2016-11-30T04:29:24.467Z,99.99
2016-11-30T04:30:24.443Z,99.99
2016-11-30T04:31:24.416Z,99.99
2016-11-30T04:32:24.390Z,99.99
2016-11-30T04:33:24.366Z,99.99
2016-11-30T04:34:24.337Z,99.99
2016-11-30T04:35:24.622Z,99.99
2016-11-30T04:36:24.285Z,99.99
2016-11-30T04:37:24.265Z,99.99
2016-11-30T04:38:24.236Z,99.99
2016-11-30T04:39:24.224Z,99.99
2016-11-30T04:40:24.182Z,99.99
2016-11-30T04:41:24.159Z,99.99
2016-11-30T04:42:24.135Z,99.99
2016-11-30T04:43:24.105Z,99.99
2016-11-30T04:44:24.080Z,99.99
2016-11-30T04:45:24.053Z,99.99
2016-11-30T04:46:24.029Z,99.99
2016-11-30T04:47:24.002Z,99.99
2016-11-30T04:48:23.980Z,99.99
2016-11-30T04:49:23.951Z,99.99
2016-11-30T04:50:23.951Z,99.99
2016-11-30T04:51:23.901Z,99.99
2016-11-30T04:52:23.875Z,99.99
2016-11-30T04:53:23.847Z,99.99
2016-11-30T04:54:23.828Z,99.99
2016-11-30T04:55:23.798Z,99.99
2016-11-30T04:56:23.776Z,99.99
2016-11-30T04:57:23.749Z,99.99
2016-11-30T04:58:24.038Z,99.99
2016-11-30T04:59:23.697Z,99.99
2016-11-30T05:00:23.667Z,99.99
2016-11-30T05:01:23.641Z,99.99
2016-11-30T05:02:23.619Z,99.99
2016-11-30T05:03:23.594Z,99.99
2016-11-30T05:04:23.569Z,99.99
2016-11-30T05:05:23.543Z,99.99
2016-11-30T05:06:23.527Z,99.99
2016-11-30T05:07:23.496Z,99.99
2016-11-30T05:08:23.470Z,99.99
2016-11-30T05:09:23.441Z,99.99
2016-11-30T05:10:23.413Z,99.99
2016-11-30T05:11:23.389Z,99.99
2016-11-30T05:12:23.361Z,99.99
2016-11-30T05:13:23.339Z,99.99
2016-11-30T05:14:23.314Z,99.99
2016-11-30T05:15:23.600Z,99.99
2016-11-30T05:16:23.261Z,99.99
2016-11-30T05:17:23.237Z,99.99
2016-11-30T05:18:23.212Z,99.99
2016-11-30T05:19:23.186Z,99.99
2016-11-30T05:20:23.160Z,99.99
2016-11-30T05:21:23.136Z,99.99
2016-11-30T05:22:23.110Z,99.99
2016-11-30T05:23:23.084Z,99.99
2016-11-30T05:24:23.061Z,99.99
2016-11-30T05:25:23.037Z,99.99
2016-11-30T05:26:23.013Z,99.99
2016-11-30T05:27:22.987Z,99.99
2016-11-30T05:28:23.277Z,99.99
2016-11-30T05:29:22.935Z,99.99
2016-11-30T05:30:22.911Z,99.99
2016-11-30T05:31:22.886Z,99.99
2016-11-30T05:32:22.860Z,99.99
2016-11-30T05:33:22.845Z,99.99
2016-11-30T05:34:22.812Z,99.99
2016-11-30T05:35:22.786Z,99.99
2016-11-30T05:36:23.074Z,99.99
2016-11-30T05:37:22.740Z,99.99
2016-11-30T05:38:22.713Z,99.99
2016-11-30T05:39:22.684Z,99.99
2016-11-30T05:40:22.688Z,99.99
2016-11-30T05:41:22.945Z,99.99
2016-11-30T05:42:22.610Z,99.99
2016-11-30T05:43:22.905Z,99.99
2016-11-30T05:44:22.563Z,99.99
2016-11-30T05:45:22.530Z,99.99
2016-11-30T05:46:22.512Z,99.99
2016-11-30T05:47:22.484Z,99.99
2016-11-30T05:48:22.460Z,99.99
2016-11-30T05:49:22.435Z,99.99
2016-11-30T05:50:22.408Z,99.99
2016-11-30T05:51:22.381Z,99.99
2016-11-30T05:52:22.356Z,99.99
2016-11-30T05:53:22.364Z,99.99
2016-11-30T05:54:22.308Z,99.99
2016-11-30T05:55:22.287Z,99.99
2016-11-30T05:56:22.508Z,99.99
2016-11-30T05:57:22.233Z,99.99
2016-11-30T05:58:22.521Z,99.99
2016-11-30T05:59:22.189Z,99.99
2016-11-30T06:00:22.170Z,99.99
2016-11-30T06:01:22.133Z,99.99
2016-11-30T06:02:22.116Z,99.99
2016-11-30T06:03:22.397Z,99.99
2016-11-30T06:04:22.063Z,99.99
2016-11-30T06:05:22.050Z,99.99
2016-11-30T06:06:22.020Z,99.99
2016-11-30T06:07:21.983Z,99.99
2016-11-30T06:08:21.966Z,99.99
2016-11-30T06:09:21.937Z,99.99
2016-11-30T06:10:22.275Z,99.99
2016-11-30T06:11:21.899Z,99.99
2016-11-30T06:12:22.186Z,99.99
2016-11-30T06:13:21.838Z,99.99
2016-11-30T06:14:21.815Z,99.99
2016-11-30T06:15:22.100Z,99.99
2016-11-30T06:16:21.764Z,99.99
2016-11-30T06:17:21.740Z,99.99
2016-11-30T06:18:21.711Z,99.99
2016-11-30T06:19:21.687Z,99.99
2016-11-30T06:20:21.662Z,99.99
2016-11-30T06:21:21.634Z,99.99
2016-11-30T06:22:21.903Z,99.99
2016-11-30T06:23:21.599Z,99.99
2016-11-30T06:24:21.570Z,99.99
2016-11-30T06:25:21.544Z,99.99
2016-11-30T06:26:21.513Z,99.99
2016-11-30T06:27:21.491Z,99.99
2016-11-30T06:28:21.464Z,99.99
2016-11-30T06:29:21.440Z,99.99
2016-11-30T06:30:21.421Z,99.99
2016-11-30T06:31:21.392Z,99.99
2016-11-30T06:32:21.366Z,99.99
2016-11-30T06:33:21.340Z,99.99
2016-11-30T06:34:21.313Z,99.99
2016-11-30T06:35:21.601Z,99.99
2016-11-30T06:36:21.263Z,99.99
2016-11-30T06:37:21.240Z,99.99
2016-11-30T06:38:21.215Z,99.99
2016-11-30T06:39:21.193Z,99.99
2016-11-30T06:40:21.166Z,99.99
2016-11-30T06:41:21.143Z,99.99
2016-11-30T06:42:21.115Z,99.99
2016-11-30T06:43:21.093Z,99.99
2016-11-30T06:44:21.072Z,99.99
2016-11-30T06:45:21.041Z,99.99
2016-11-30T06:46:21.015Z,99.99
2016-11-30T06:47:20.996Z,99.99
2016-11-30T06:48:21.283Z,99.99
2016-11-30T06:49:21.285Z,99.99
2016-11-30T06:50:20.921Z,99.99
2016-11-30T06:51:20.900Z,99.99
2016-11-30T06:52:20.869Z,99.99
2016-11-30T06:53:20.842Z,99.99
2016-11-30T06:54:20.821Z,99.99
2016-11-30T06:55:20.791Z,99.99
2016-11-30T06:56:21.096Z,99.99
2016-11-30T06:57:20.748Z,99.99
2016-11-30T06:58:20.726Z,99.99
2016-11-30T06:59:21.029Z,99.99
2016-11-30T07:00:20.667Z,99.99
2016-11-30T07:01:20.955Z,99.99
2016-11-30T07:02:20.617Z,99.99
2016-11-30T07:03:20.594Z,99.99
2016-11-30T07:04:20.879Z,99.99
2016-11-30T07:05:20.541Z,99.99
2016-11-30T07:06:20.521Z,99.99
2016-11-30T07:07:20.492Z,99.99
2016-11-30T07:08:20.467Z,99.99
2016-11-30T07:09:20.440Z,99.99
2016-11-30T07:10:20.443Z,99.99
2016-11-30T07:11:20.394Z,99.99
2016-11-30T07:12:20.364Z,99.99
2016-11-30T07:13:20.342Z,99.99
2016-11-30T07:14:20.317Z,99.99
2016-11-30T07:15:20.293Z,99.99
2016-11-30T07:16:20.266Z,99.99
2016-11-30T07:17:20.246Z,99.99
2016-11-30T07:18:20.217Z,99.99
2016-11-30T07:19:20.189Z,99.99
2016-11-30T07:20:20.479Z,99.99
2016-11-30T07:21:20.142Z,99.99
2016-11-30T07:22:20.115Z,99.99
2016-11-30T07:23:20.093Z,99.99
2016-11-30T07:24:20.067Z,99.99
2016-11-30T07:25:20.041Z,99.99
2016-11-30T07:26:20.018Z,99.99
2016-11-30T07:27:20.024Z,99.99
2016-11-30T07:28:20.280Z,99.99
2016-11-30T07:29:20.107Z,99.99
2016-11-30T07:30:19.929Z,99.99
2016-11-30T07:31:20.207Z,99.99
2016-11-30T07:32:19.871Z,99.99
2016-11-30T07:33:19.842Z,99.99
2016-11-30T07:34:19.818Z,99.99
2016-11-30T07:35:19.793Z,99.99
2016-11-30T07:36:19.822Z,99.99
2016-11-30T07:37:19.744Z,99.99
2016-11-30T07:38:19.750Z,99.99
2016-11-30T07:39:19.693Z,99.99
2016-11-30T07:40:19.697Z,99.99
2016-11-30T07:41:19.646Z,99.99
2016-11-30T07:42:19.951Z,99.99
2016-11-30T07:43:19.602Z,99.99
2016-11-30T07:44:19.595Z,99.99
2016-11-30T07:45:19.875Z,99.99
2016-11-30T07:46:19.839Z,99.99
2016-11-30T07:47:19.500Z,99.99
2016-11-30T07:48:19.476Z,99.99
2016-11-30T07:49:19.445Z,99.99
2016-11-30T07:50:19.738Z,99.99
2016-11-30T07:51:19.401Z,99.99
2016-11-30T07:52:19.373Z,99.99
2016-11-30T07:53:19.351Z,99.99
2016-11-30T07:54:19.321Z,99.99
2016-11-30T07:55:19.300Z,99.99
2016-11-30T07:56:19.476Z,99.99
2016-11-30T07:57:19.253Z,99.99
2016-11-30T07:58:19.227Z,99.99
2016-11-30T07:59:19.201Z,99.99
2016-11-30T08:00:19.177Z,99.99
2016-11-30T08:01:19.151Z,99.99
2016-11-30T08:02:19.181Z,99.99
2016-11-30T08:03:19.130Z,99.99
2016-11-30T08:04:19.080Z,99.99
2016-11-30T08:05:19.056Z,99.99
2016-11-30T08:06:19.030Z,99.99
2016-11-30T08:07:19.318Z,99.99
2016-11-30T08:08:18.981Z,99.99
2016-11-30T08:09:18.957Z,99.99
2016-11-30T08:10:18.932Z,99.99
2016-11-30T08:11:18.909Z,99.99
2016-11-30T08:12:18.899Z,99.99
2016-11-30T08:13:18.867Z,99.99
2016-11-30T08:14:18.836Z,99.99
2016-11-30T08:15:19.123Z,99.99
2016-11-30T08:16:18.797Z,99.99
2016-11-30T08:17:18.765Z,99.99
2016-11-30T08:18:18.735Z,99.99
2016-11-30T08:19:18.712Z,99.99
2016-11-30T08:20:18.689Z,99.99
2016-11-30T08:21:18.998Z,99.99
2016-11-30T08:22:18.647Z,99.99
2016-11-30T08:23:18.617Z,99.99
2016-11-30T08:24:18.907Z,99.99
2016-11-30T08:25:18.568Z,99.99
2016-11-30T08:26:18.544Z,99.99
2016-11-30T08:27:18.519Z,99.99
2016-11-30T08:28:18.500Z,99.99
2016-11-30T08:29:18.469Z,99.99
2016-11-30T08:30:18.452Z,99.99
2016-11-30T08:31:18.424Z,99.99
2016-11-30T08:32:18.403Z,99.99
2016-11-30T08:33:18.379Z,99.99
2016-11-30T08:34:18.352Z,99.99
2016-11-30T08:35:18.327Z,99.99
2016-11-30T08:36:18.304Z,99.99
2016-11-30T08:37:18.284Z,99.99
2016-11-30T08:38:18.571Z,99.99
2016-11-30T08:39:18.241Z,99.99
2016-11-30T08:40:18.207Z,99.99
2016-11-30T08:41:18.188Z,99.99
2016-11-30T08:42:18.161Z,99.99
2016-11-30T08:43:18.170Z,99.99
2016-11-30T08:44:18.115Z,99.99
2016-11-30T08:45:18.095Z,99.99
2016-11-30T08:46:18.067Z,99.99
2016-11-30T08:47:18.049Z,99.99
2016-11-30T08:48:18.019Z,99.99
2016-11-30T08:49:17.998Z,99.99
2016-11-30T08:50:17.975Z,99.99
2016-11-30T08:51:17.951Z,99.99
2016-11-30T08:52:17.929Z,99.99
2016-11-30T08:53:17.901Z,99.99
2016-11-30T08:54:17.910Z,99.99
2016-11-30T08:55:17.856Z,99.99
2016-11-30T08:56:18.150Z,99.99
2016-11-30T08:57:17.811Z,99.99
2016-11-30T08:58:17.790Z,99.99
2016-11-30T08:59:17.763Z,99.99
2016-11-30T09:00:17.737Z,99.99
2016-11-30T09:01:17.715Z,99.99
2016-11-30T09:02:17.721Z,99.99
2016-11-30T09:03:17.667Z,99.99
2016-11-30T09:04:17.650Z,99.99
2016-11-30T09:05:17.626Z,99.99
2016-11-30T09:06:17.605Z,99.99
2016-11-30T09:07:17.575Z,99.99
2016-11-30T09:08:17.569Z,99.99
2016-11-30T09:09:17.843Z,99.99
2016-11-30T09:10:17.508Z,99.99
2016-11-30T09:11:17.485Z,99.99
2016-11-30T09:12:17.777Z,99.99
2016-11-30T09:13:17.439Z,99.99
2016-11-30T09:14:17.414Z,99.99
2016-11-30T09:15:17.388Z,99.99
2016-11-30T09:16:17.367Z,99.99
2016-11-30T09:17:17.344Z,99.99
2016-11-30T09:18:17.320Z,99.99
2016-11-30T09:19:17.618Z,99.99
2016-11-30T09:20:17.275Z,99.99
2016-11-30T09:21:17.258Z,99.99
2016-11-30T09:22:17.231Z,99.99
2016-11-30T09:23:17.220Z,99.99
2016-11-30T09:24:17.499Z,99.99
2016-11-30T09:25:17.165Z,99.99
2016-11-30T09:26:17.147Z,99.99
2016-11-30T09:27:17.117Z,99.99
2016-11-30T09:28:17.097Z,99.99
2016-11-30T09:29:17.083Z,99.99
2016-11-30T09:30:17.056Z,99.99
2016-11-30T09:31:17.033Z,99.99
2016-11-30T09:32:17.007Z,99.99
2016-11-30T09:33:17.039Z,99.99
2016-11-30T09:34:16.968Z,99.99
2016-11-30T09:35:16.943Z,99.99
2016-11-30T09:36:17.237Z,99.99
2016-11-30T09:37:16.896Z,99.99
2016-11-30T09:38:16.877Z,99.99
2016-11-30T09:39:16.860Z,99.99
2016-11-30T09:40:16.836Z,99.99
2016-11-30T09:41:16.811Z,99.99
2016-11-30T09:42:16.791Z,99.99
2016-11-30T09:43:16.772Z,99.99
2016-11-30T09:44:16.748Z,99.99
2016-11-30T09:45:16.729Z,99.99
2016-11-30T09:46:16.704Z,99.99
2016-11-30T09:47:16.683Z,99.99
2016-11-30T09:48:16.664Z,99.99
2016-11-30T09:49:16.954Z,99.99
2016-11-30T09:50:16.641Z,99.99
2016-11-30T09:51:16.602Z,99.99
2016-11-30T09:52:16.580Z,99.99
2016-11-30T09:53:16.556Z,99.99
2016-11-30T09:54:16.538Z,99.99
2016-11-30T09:55:16.517Z,99.99
2016-11-30T09:56:16.710Z,99.99
2016-11-30T09:57:16.475Z,99.99
2016-11-30T09:58:16.457Z,99.99
2016-11-30T09:59:16.441Z,99.99
2016-11-30T10:00:16.421Z,99.99
2016-11-30T10:01:16.398Z,98.72
2016-11-30T10:02:16.378Z,99.99
2016-11-30T10:03:16.363Z,99.99
2016-11-30T10:04:16.343Z,99.99
2016-11-30T10:05:16.326Z,99.01
2016-11-30T10:06:16.310Z,99.06
2016-11-30T10:07:16.287Z,97.49
2016-11-30T10:08:16.579Z,96.45
2016-11-30T10:09:16.251Z,97.87
2016-11-30T10:10:16.232Z,97.87
2016-11-30T10:11:16.211Z,97.78
2016-11-30T10:12:16.196Z,98.72
2016-11-30T10:13:16.173Z,97.21
2016-11-30T10:14:16.164Z,97.59
2016-11-30T10:15:16.142Z,94.84
2016-11-30T10:16:16.132Z,95.31
2016-11-30T10:17:16.104Z,96.92
2016-11-30T10:18:16.088Z,95.6
2016-11-30T10:19:16.381Z,96.45
2016-11-30T10:20:16.052Z,96.64
2016-11-30T10:21:16.041Z,92
2016-11-30T10:22:16.016Z,92.76
2016-11-30T10:23:16.017Z,94.56
2016-11-30T10:24:15.977Z,93.18
2016-11-30T10:25:15.965Z,93.08
2016-11-30T10:26:15.940Z,91.28
2016-11-30T10:27:15.925Z,89.29
2016-11-30T10:28:15.905Z,89.39
2016-11-30T10:29:16.201Z,89.39
2016-11-30T10:30:15.871Z,89.67
2016-11-30T10:31:15.855Z,91.28
2016-11-30T10:32:15.835Z,91.19
2016-11-30T10:33:15.819Z,89.11
2016-11-30T10:34:15.808Z,89.67
2016-11-30T10:35:15.784Z,91
2016-11-30T10:36:15.765Z,92.42
2016-11-30T10:37:15.748Z,91.09
2016-11-30T10:38:15.734Z,90.91
2016-11-30T10:39:15.716Z,89.11
2016-11-30T10:40:15.694Z,88.63
2016-11-30T10:41:15.689Z,90.05
2016-11-30T10:42:15.664Z,87.59
2016-11-30T10:43:15.647Z,86.93
2016-11-30T10:44:15.639Z,84.94
2016-11-30T10:45:15.614Z,85.69
2016-11-30T10:46:15.597Z,86.64
2016-11-30T10:47:15.583Z,88.06
2016-11-30T10:48:15.568Z,84.46
2016-11-30T10:49:15.552Z,83.94
2016-11-30T10:50:15.529Z,83.36
2016-11-30T10:51:15.562Z,80.99
2016-11-30T10:52:15.497Z,81.27
2016-11-30T10:53:15.480Z,79.1
2016-11-30T10:54:15.465Z,79.66
2016-11-30T10:55:15.449Z,78.24
2016-11-30T10:56:15.434Z,80.18
2016-11-30T10:57:15.416Z,78.85
2016-11-30T10:58:15.404Z,76.57
2016-11-30T10:59:15.386Z,77.52
2016-11-30T11:00:15.370Z,76.48
2016-11-30T11:01:15.361Z,76.57
2016-11-30T11:02:15.341Z,74.39
2016-11-30T11:03:15.640Z,76.29
2016-11-30T11:04:15.315Z,75.15
2016-11-30T11:05:15.292Z,75.4
2016-11-30T11:06:15.278Z,76.25
2016-11-30T11:07:15.262Z,76.92
2016-11-30T11:08:15.247Z,78.34
2016-11-30T11:09:15.235Z,77.96
2016-11-30T11:10:15.220Z,78.15
2016-11-30T11:11:15.517Z,79.44
2016-11-30T11:12:15.192Z,80.38
2016-11-30T11:13:15.175Z,82.56
2016-11-30T11:14:15.164Z,83.42
2016-11-30T11:15:15.458Z,79.66
2016-11-30T11:16:15.132Z,80.33
2016-11-30T11:17:15.113Z,79.66
2016-11-30T11:18:15.097Z,79.57
2016-11-30T11:19:15.094Z,80.04
2016-11-30T11:20:15.067Z,80.04
2016-11-30T11:21:15.054Z,80.86
2016-11-30T11:22:15.033Z,82.09
2016-11-30T11:23:15.022Z,81.14
2016-11-30T11:24:15.007Z,82.66
2016-11-30T11:25:14.990Z,82.94
2016-11-30T11:26:15.285Z,83.7
2016-11-30T11:27:14.955Z,84.08
2016-11-30T11:28:14.937Z,84.8
2016-11-30T11:29:14.951Z,84.8
2016-11-30T11:30:14.904Z,86.35
2016-11-30T11:31:14.893Z,87.16
2016-11-30T11:32:14.871Z,89.34
2016-11-30T11:33:14.855Z,86.6
2016-11-30T11:34:14.839Z,88.11
2016-11-30T11:35:14.815Z,87.16
2016-11-30T11:36:14.799Z,87.54
2016-11-30T11:37:14.785Z,87.07
2016-11-30T11:38:14.765Z,86.79
2016-11-30T11:39:14.748Z,88.21
2016-11-30T11:40:14.729Z,88.87
2016-11-30T11:41:14.713Z,88.78
2016-11-30T11:42:15.005Z,87.16
2016-11-30T11:43:14.679Z,87.54
2016-11-30T11:44:14.656Z,88.4
2016-11-30T11:45:14.638Z,88.11
2016-11-30T11:46:14.936Z,86.69
2016-11-30T11:47:14.603Z,87.45
2016-11-30T11:48:14.584Z,86.79
2016-11-30T11:49:14.570Z,87.16
2016-11-30T11:50:14.551Z,88.11
2016-11-30T11:51:14.528Z,88.49
2016-11-30T11:52:14.528Z,87.54
2016-11-30T11:53:14.492Z,87.92
2016-11-30T11:54:14.469Z,88.02
2016-11-30T11:55:14.452Z,86.6
2016-11-30T11:56:14.441Z,85.46
2016-11-30T11:57:14.419Z,84.55
2016-11-30T11:58:14.397Z,85.17
2016-11-30T11:59:14.401Z,85.93
2016-11-30T12:00:14.374Z,85.13
2016-11-30T12:01:14.348Z,82.18
2016-11-30T12:02:14.330Z,80.48
2016-11-30T12:03:14.312Z,81.81
2016-11-30T12:04:14.293Z,81.99
2016-11-30T12:05:14.277Z,77.39
2016-11-30T12:06:14.259Z,76.73
2016-11-30T12:07:14.563Z,74.58
2016-11-30T12:08:14.230Z,72.88
2016-11-30T12:09:14.209Z,70.4
2016-11-30T12:10:14.195Z,69.84
2016-11-30T12:11:14.179Z,68.89
2016-11-30T12:12:14.166Z,67.88
2016-11-30T12:13:14.177Z,67.5
2016-11-30T12:14:14.136Z,66.83
2016-11-30T12:15:14.118Z,67.4
2016-11-30T12:16:14.417Z,65.63
2016-11-30T12:17:14.091Z,64.4
2016-11-30T12:18:14.081Z,64.87
2016-11-30T12:19:14.066Z,62.62
2016-11-30T12:20:14.052Z,62.53
2016-11-30T12:21:14.040Z,62.62
2016-11-30T12:22:14.026Z,62.05
2016-11-30T12:23:14.012Z,61.2
2016-11-30T12:24:14.005Z,60.53
2016-11-30T12:25:14.412Z,61.2
2016-11-30T12:26:13.987Z,61.68
2016-11-30T12:27:14.002Z,61.04
2016-11-30T12:28:13.952Z,59.71
2016-11-30T12:29:13.939Z,59.61
2016-11-30T12:30:13.929Z,59.42
2016-11-30T12:31:13.920Z,59.39
2016-11-30T12:32:13.907Z,59.77
2016-11-30T12:33:13.894Z,59.77
2016-11-30T12:34:13.884Z,60.16
2016-11-30T12:35:13.873Z,60.47
2016-11-30T12:36:13.856Z,59.99
2016-11-30T12:37:13.850Z,59.05
2016-11-30T12:38:13.832Z,59.42
2016-11-30T12:39:13.823Z,58.47
2016-11-30T12:40:13.815Z,59.61
2016-11-30T12:41:13.798Z,58.37
2016-11-30T12:42:13.789Z,58.5
2016-11-30T12:43:14.099Z,58.76
2016-11-30T12:44:13.771Z,60.72
2016-11-30T12:45:13.757Z,61.29
2016-11-30T12:46:14.060Z,62.78
2016-11-30T12:47:13.736Z,64.27
2016-11-30T12:48:13.723Z,66.36
2016-11-30T12:49:13.712Z,67.02
2016-11-30T12:50:14.012Z,68.54
2016-11-30T12:51:13.999Z,69.17
2016-11-30T12:52:13.675Z,68.98
2016-11-30T12:53:13.667Z,70.21